Kezdőlap
METAR-TAF:

METAR-TAF

Repülőterek :

Grenchen, Svájc

földrajzi szélesség: 47-10-53N, földrajzi hosszúság: 007-24-59E, magasság: 430 m

Jelenlegi meteorológiai megfigyelések

A jelentés 35 perccel ezelõtt készült, 19:50 UTC
Délnyugati szél 8 kt
Hőmérséklet 8°C
Páratartalom 76%
Légköri nyomás 1031 hPa
Látótávolság 10 km, vagy több
felhőtlen 1500 m magasságban, és nincs gomolyfelhõ

METAR: LSZG 221950Z AUTO 22008KT CAVOK 08/04 Q1031

Idő: 21:25 (20:25 UTC)

Előrejelzés

A jelentés 6 órával és 0 perccel ezelõtt készült, 14:25 UTC
Az előrejelzés 22-én 15 óra UTC és 22-én 24 óra UTC között érvényes
Nyugat-délnyugati szél 5 kt
Látótávolság 10 km, vagy több
felhőtlen 1500 m magasságban, és nincs gomolyfelhõ

TAF: LSZG 221425Z 2215/2224 24005KT CAVOK

Meteorológiai megfigyelések és előrejelzések több, mint 4000 repülőtéren (METAR és TAF jelentéseket).

A térképen piros és sárga pontok jelzik az elérhető meteorológiai állomásokat.

Mozgassa az egeret a pont fölött, hogy megjelenjen az állomás neve.

Azután kattintson az időjárási megfigyelések és előrejelzések megtekintéséhez.

A térkép megváltoztatása: kattintson a fekete keresztel jelölt zöld gombra ráközelítéshez, a vonallal jelölt zöld gombra távolításhoz, vagy a zöld nyilakra a szomszédos térképek eléréséhez.


METAR-TAF: